sensor_id;sensor_type;location;lat;lon;timestamp;P1;durP1;ratioP1;P2;durP2;ratioP2
38113;SDS011;23926;53.222;6.354;2023-09-30T00:00:42;6.35;;;5.68;;
38113;SDS011;23926;53.222;6.354;2023-09-30T00:03:08;7.15;;;6.45;;
38113;SDS011;23926;53.222;6.354;2023-09-30T00:05:35;11.02;;;9.43;;
38113;SDS011;23926;53.222;6.354;2023-09-30T00:08:01;14.02;;;11.35;;
38113;SDS011;23926;53.222;6.354;2023-09-30T00:10:27;12.70;;;11.73;;
38113;SDS011;23926;53.222;6.354;2023-09-30T00:12:52;13.73;;;10.95;;
38113;SDS011;23926;53.222;6.354;2023-09-30T00:15:17;12.68;;;11.30;;
38113;SDS011;23926;53.222;6.354;2023-09-30T00:17:43;13.32;;;12.13;;
38113;SDS011;23926;53.222;6.354;2023-09-30T00:20:09;10.80;;;7.40;;
38113;SDS011;23926;53.222;6.354;2023-09-30T00:22:34;15.40;;;13.65;;
38113;SDS011;23926;53.222;6.354;2023-09-30T00:25:00;12.25;;;11.18;;
38113;SDS011;23926;53.222;6.354;2023-09-30T00:27:25;21.52;;;20.27;;
38113;SDS011;23926;53.222;6.354;2023-09-30T00:29:51;12.77;;;11.88;;
38113;SDS011;23926;53.222;6.354;2023-09-30T00:32:16;14.73;;;11.63;;
38113;SDS011;23926;53.222;6.354;2023-09-30T00:34:42;12.93;;;11.80;;
38113;SDS011;23926;53.222;6.354;2023-09-30T00:37:08;24.17;;;22.23;;
38113;SDS011;23926;53.222;6.354;2023-09-30T00:39:33;16.63;;;15.43;;
38113;SDS011;23926;53.222;6.354;2023-09-30T00:41:58;27.83;;;26.05;;
38113;SDS011;23926;53.222;6.354;2023-09-30T00:44:27;22.50;;;20.58;;
38113;SDS011;23926;53.222;6.354;2023-09-30T00:46:53;30.27;;;28.42;;
38113;SDS011;23926;53.222;6.354;2023-09-30T00:49:23;22.23;;;20.80;;
38113;SDS011;23926;53.222;6.354;2023-09-30T00:51:49;21.55;;;20.27;;
38113;SDS011;23926;53.222;6.354;2023-09-30T00:54:15;29.35;;;27.50;;
38113;SDS011;23926;53.222;6.354;2023-09-30T00:56:45;38.13;;;36.17;;
38113;SDS011;23926;53.222;6.354;2023-09-30T00:59:14;42.67;;;40.20;;
38113;SDS011;23926;53.222;6.354;2023-09-30T01:01:41;35.63;;;33.20;;
38113;SDS011;23926;53.222;6.354;2023-09-30T01:04:09;37.47;;;34.97;;
38113;SDS011;23926;53.222;6.354;2023-09-30T01:06:35;37.92;;;35.78;;
38113;SDS011;23926;53.222;6.354;2023-09-30T01:09:01;23.25;;;21.67;;
38113;SDS011;23926;53.222;6.354;2023-09-30T01:11:26;24.80;;;23.40;;
38113;SDS011;23926;53.222;6.354;2023-09-30T01:13:52;20.58;;;19.23;;
38113;SDS011;23926;53.222;6.354;2023-09-30T01:16:17;21.83;;;20.20;;
38113;SDS011;23926;53.222;6.354;2023-09-30T01:18:43;34.72;;;32.85;;
38113;SDS011;23926;53.222;6.354;2023-09-30T01:21:09;29.02;;;27.27;;
38113;SDS011;23926;53.222;6.354;2023-09-30T01:23:34;27.95;;;26.23;;
38113;SDS011;23926;53.222;6.354;2023-09-30T01:26:04;37.70;;;35.42;;
38113;SDS011;23926;53.222;6.354;2023-09-30T01:28:31;42.63;;;40.42;;
38113;SDS011;23926;53.222;6.354;2023-09-30T01:30:57;32.13;;;30.38;;
38113;SDS011;23926;53.222;6.354;2023-09-30T01:33:23;47.15;;;43.97;;
38113;SDS011;23926;53.222;6.354;2023-09-30T01:35:49;45.30;;;42.92;;
38113;SDS011;23926;53.222;6.354;2023-09-30T01:38:14;37.28;;;35.15;;
38113;SDS011;23926;53.222;6.354;2023-09-30T01:40:40;39.97;;;37.55;;
38113;SDS011;23926;53.222;6.354;2023-09-30T01:43:05;31.88;;;28.90;;
38113;SDS011;23926;53.222;6.354;2023-09-30T01:45:31;27.95;;;26.13;;
38113;SDS011;23926;53.222;6.354;2023-09-30T01:47:56;25.00;;;23.10;;
38113;SDS011;23926;53.222;6.354;2023-09-30T01:50:22;16.63;;;15.60;;
38113;SDS011;23926;53.222;6.354;2023-09-30T01:52:47;13.45;;;12.43;;
38113;SDS011;23926;53.222;6.354;2023-09-30T01:55:13;20.30;;;18.73;;
38113;SDS011;23926;53.222;6.354;2023-09-30T01:57:38;21.20;;;19.95;;
38113;SDS011;23926;53.222;6.354;2023-09-30T02:00:04;15.55;;;14.55;;
38113;SDS011;23926;53.222;6.354;2023-09-30T02:02:30;16.88;;;15.80;;
38113;SDS011;23926;53.222;6.354;2023-09-30T02:04:56;22.33;;;20.80;;
38113;SDS011;23926;53.222;6.354;2023-09-30T02:07:22;29.13;;;27.13;;
38113;SDS011;23926;53.222;6.354;2023-09-30T02:09:47;19.25;;;17.95;;
38113;SDS011;23926;53.222;6.354;2023-09-30T02:12:14;19.17;;;17.58;;
38113;SDS011;23926;53.222;6.354;2023-09-30T02:14:39;16.05;;;14.85;;
38113;SDS011;23926;53.222;6.354;2023-09-30T02:17:05;18.42;;;17.25;;
38113;SDS011;23926;53.222;6.354;2023-09-30T02:19:30;20.65;;;18.92;;
38113;SDS011;23926;53.222;6.354;2023-09-30T02:21:58;42.50;;;40.08;;
38113;SDS011;23926;53.222;6.354;2023-09-30T02:24:24;44.53;;;41.95;;
38113;SDS011;23926;53.222;6.354;2023-09-30T02:26:50;32.90;;;30.92;;
38113;SDS011;23926;53.222;6.354;2023-09-30T02:29:15;42.58;;;40.30;;
38113;SDS011;23926;53.222;6.354;2023-09-30T02:31:41;45.90;;;42.72;;
38113;SDS011;23926;53.222;6.354;2023-09-30T02:34:06;30.05;;;27.88;;
38113;SDS011;23926;53.222;6.354;2023-09-30T02:36:32;34.58;;;32.75;;
38113;SDS011;23926;53.222;6.354;2023-09-30T02:38:58;42.30;;;39.55;;
38113;SDS011;23926;53.222;6.354;2023-09-30T02:41:25;48.17;;;45.13;;
38113;SDS011;23926;53.222;6.354;2023-09-30T02:43:51;59.28;;;56.28;;
38113;SDS011;23926;53.222;6.354;2023-09-30T02:46:16;35.20;;;33.13;;
38113;SDS011;23926;53.222;6.354;2023-09-30T02:48:42;43.67;;;41.05;;
38113;SDS011;23926;53.222;6.354;2023-09-30T02:51:11;44.03;;;41.53;;
38113;SDS011;23926;53.222;6.354;2023-09-30T02:53:37;46.90;;;44.35;;
38113;SDS011;23926;53.222;6.354;2023-09-30T02:56:02;56.55;;;53.50;;
38113;SDS011;23926;53.222;6.354;2023-09-30T02:58:29;59.42;;;55.67;;
38113;SDS011;23926;53.222;6.354;2023-09-30T03:00:55;57.83;;;54.50;;
38113;SDS011;23926;53.222;6.354;2023-09-30T03:03:21;53.70;;;50.83;;
38113;SDS011;23926;53.222;6.354;2023-09-30T03:05:46;35.88;;;34.03;;
38113;SDS011;23926;53.222;6.354;2023-09-30T03:08:15;41.45;;;38.30;;
38113;SDS011;23926;53.222;6.354;2023-09-30T03:10:40;45.22;;;42.55;;
38113;SDS011;23926;53.222;6.354;2023-09-30T03:13:06;45.15;;;42.70;;
38113;SDS011;23926;53.222;6.354;2023-09-30T03:15:34;51.35;;;48.65;;
38113;SDS011;23926;53.222;6.354;2023-09-30T03:18:00;47.13;;;44.15;;
38113;SDS011;23926;53.222;6.354;2023-09-30T03:20:26;52.88;;;49.63;;
38113;SDS011;23926;53.222;6.354;2023-09-30T03:22:51;53.92;;;50.30;;
38113;SDS011;23926;53.222;6.354;2023-09-30T03:25:18;64.38;;;61.03;;
38113;SDS011;23926;53.222;6.354;2023-09-30T03:27:45;56.00;;;53.10;;
38113;SDS011;23926;53.222;6.354;2023-09-30T03:30:12;56.97;;;52.63;;
38113;SDS011;23926;53.222;6.354;2023-09-30T03:32:38;79.57;;;75.20;;
38113;SDS011;23926;53.222;6.354;2023-09-30T03:35:05;77.18;;;72.95;;
38113;SDS011;23926;53.222;6.354;2023-09-30T03:37:35;62.75;;;59.03;;
38113;SDS011;23926;53.222;6.354;2023-09-30T03:40:02;62.47;;;58.25;;
38113;SDS011;23926;53.222;6.354;2023-09-30T03:42:37;59.70;;;56.35;;
38113;SDS011;23926;53.222;6.354;2023-09-30T03:45:04;57.33;;;53.97;;
38113;SDS011;23926;53.222;6.354;2023-09-30T03:47:31;61.58;;;58.22;;
38113;SDS011;23926;53.222;6.354;2023-09-30T03:49:56;62.17;;;58.40;;
38113;SDS011;23926;53.222;6.354;2023-09-30T03:52:24;70.65;;;66.30;;
38113;SDS011;23926;53.222;6.354;2023-09-30T03:54:51;68.38;;;64.47;;
38113;SDS011;23926;53.222;6.354;2023-09-30T03:57:16;60.58;;;57.22;;
38113;SDS011;23926;53.222;6.354;2023-09-30T03:59:42;64.57;;;60.75;;
38113;SDS011;23926;53.222;6.354;2023-09-30T04:02:07;57.53;;;54.33;;
38113;SDS011;23926;53.222;6.354;2023-09-30T04:04:33;56.60;;;52.90;;
38113;SDS011;23926;53.222;6.354;2023-09-30T04:06:59;60.20;;;56.20;;
38113;SDS011;23926;53.222;6.354;2023-09-30T04:09:24;49.90;;;47.30;;
38113;SDS011;23926;53.222;6.354;2023-09-30T04:11:50;68.93;;;65.22;;
38113;SDS011;23926;53.222;6.354;2023-09-30T04:14:16;58.65;;;55.53;;
38113;SDS011;23926;53.222;6.354;2023-09-30T04:16:42;51.80;;;48.78;;
38113;SDS011;23926;53.222;6.354;2023-09-30T04:19:08;71.03;;;66.78;;
38113;SDS011;23926;53.222;6.354;2023-09-30T04:21:35;74.90;;;70.60;;
38113;SDS011;23926;53.222;6.354;2023-09-30T04:24:03;68.03;;;64.13;;
38113;SDS011;23926;53.222;6.354;2023-09-30T04:26:30;74.38;;;69.93;;
38113;SDS011;23926;53.222;6.354;2023-09-30T04:28:55;85.78;;;79.97;;
38113;SDS011;23926;53.222;6.354;2023-09-30T04:31:22;69.30;;;65.35;;
38113;SDS011;23926;53.222;6.354;2023-09-30T04:33:48;74.28;;;69.88;;
38113;SDS011;23926;53.222;6.354;2023-09-30T04:36:18;78.47;;;73.72;;
38113;SDS011;23926;53.222;6.354;2023-09-30T04:38:44;82.00;;;76.82;;
38113;SDS011;23926;53.222;6.354;2023-09-30T04:41:09;85.28;;;80.07;;
38113;SDS011;23926;53.222;6.354;2023-09-30T04:43:35;81.75;;;76.82;;
38113;SDS011;23926;53.222;6.354;2023-09-30T04:46:04;92.68;;;86.97;;
38113;SDS011;23926;53.222;6.354;2023-09-30T04:48:29;82.55;;;77.45;;
38113;SDS011;23926;53.222;6.354;2023-09-30T04:50:54;78.00;;;73.43;;
38113;SDS011;23926;53.222;6.354;2023-09-30T04:53:20;82.53;;;77.50;;
38113;SDS011;23926;53.222;6.354;2023-09-30T04:55:46;75.32;;;70.90;;
38113;SDS011;23926;53.222;6.354;2023-09-30T04:58:12;82.32;;;77.32;;
38113;SDS011;23926;53.222;6.354;2023-09-30T05:00:38;81.63;;;76.88;;
38113;SDS011;23926;53.222;6.354;2023-09-30T05:03:04;78.20;;;73.63;;
38113;SDS011;23926;53.222;6.354;2023-09-30T05:05:30;69.55;;;64.88;;
38113;SDS011;23926;53.222;6.354;2023-09-30T05:07:55;77.72;;;73.28;;
38113;SDS011;23926;53.222;6.354;2023-09-30T05:10:22;70.78;;;65.75;;
38113;SDS011;23926;53.222;6.354;2023-09-30T05:12:49;80.80;;;76.00;;
38113;SDS011;23926;53.222;6.354;2023-09-30T05:15:15;83.60;;;78.25;;
38113;SDS011;23926;53.222;6.354;2023-09-30T05:17:44;75.32;;;71.07;;
38113;SDS011;23926;53.222;6.354;2023-09-30T05:20:10;72.68;;;68.40;;
38113;SDS011;23926;53.222;6.354;2023-09-30T05:22:37;47.63;;;44.42;;
38113;SDS011;23926;53.222;6.354;2023-09-30T05:25:07;47.88;;;44.97;;
38113;SDS011;23926;53.222;6.354;2023-09-30T05:27:34;47.53;;;44.47;;
38113;SDS011;23926;53.222;6.354;2023-09-30T05:29:59;59.15;;;55.70;;
38113;SDS011;23926;53.222;6.354;2023-09-30T05:32:25;56.15;;;52.35;;
38113;SDS011;23926;53.222;6.354;2023-09-30T05:34:52;66.65;;;62.92;;
38113;SDS011;23926;53.222;6.354;2023-09-30T05:37:18;62.15;;;58.40;;
38113;SDS011;23926;53.222;6.354;2023-09-30T05:39:46;67.45;;;63.40;;
38113;SDS011;23926;53.222;6.354;2023-09-30T05:42:13;76.13;;;71.45;;
38113;SDS011;23926;53.222;6.354;2023-09-30T05:44:39;76.72;;;71.97;;
38113;SDS011;23926;53.222;6.354;2023-09-30T05:47:05;74.13;;;69.80;;
38113;SDS011;23926;53.222;6.354;2023-09-30T05:49:30;67.30;;;63.55;;
38113;SDS011;23926;53.222;6.354;2023-09-30T05:51:56;63.13;;;59.58;;
38113;SDS011;23926;53.222;6.354;2023-09-30T05:54:21;56.78;;;53.65;;
38113;SDS011;23926;53.222;6.354;2023-09-30T05:56:47;79.28;;;74.30;;
38113;SDS011;23926;53.222;6.354;2023-09-30T05:59:14;74.38;;;70.03;;
38113;SDS011;23926;53.222;6.354;2023-09-30T06:01:39;72.40;;;67.63;;
38113;SDS011;23926;53.222;6.354;2023-09-30T06:04:06;77.10;;;71.80;;
38113;SDS011;23926;53.222;6.354;2023-09-30T06:06:31;78.22;;;73.15;;
38113;SDS011;23926;53.222;6.354;2023-09-30T06:08:57;84.88;;;78.75;;
38113;SDS011;23926;53.222;6.354;2023-09-30T06:11:23;91.38;;;84.85;;
38113;SDS011;23926;53.222;6.354;2023-09-30T06:13:50;95.55;;;88.72;;
38113;SDS011;23926;53.222;6.354;2023-09-30T06:16:24;91.47;;;84.57;;
38113;SDS011;23926;53.222;6.354;2023-09-30T06:18:51;95.88;;;88.80;;
38113;SDS011;23926;53.222;6.354;2023-09-30T06:21:17;93.18;;;86.35;;
38113;SDS011;23926;53.222;6.354;2023-09-30T06:23:46;91.47;;;85.00;;
38113;SDS011;23926;53.222;6.354;2023-09-30T06:26:12;93.88;;;86.95;;
38113;SDS011;23926;53.222;6.354;2023-09-30T06:28:38;89.57;;;83.30;;
38113;SDS011;23926;53.222;6.354;2023-09-30T06:31:07;93.18;;;86.28;;
38113;SDS011;23926;53.222;6.354;2023-09-30T06:33:34;92.30;;;84.90;;
38113;SDS011;23926;53.222;6.354;2023-09-30T06:36:00;94.32;;;86.88;;
38113;SDS011;23926;53.222;6.354;2023-09-30T06:38:27;94.72;;;87.55;;
38113;SDS011;23926;53.222;6.354;2023-09-30T06:40:52;86.57;;;79.93;;
38113;SDS011;23926;53.222;6.354;2023-09-30T06:43:19;92.68;;;85.70;;
38113;SDS011;23926;53.222;6.354;2023-09-30T06:45:45;93.47;;;86.57;;
38113;SDS011;23926;53.222;6.354;2023-09-30T06:48:11;88.72;;;82.57;;
38113;SDS011;23926;53.222;6.354;2023-09-30T06:50:47;95.07;;;87.60;;
38113;SDS011;23926;53.222;6.354;2023-09-30T06:53:14;92.85;;;86.30;;
38113;SDS011;23926;53.222;6.354;2023-09-30T06:55:43;90.93;;;84.50;;
38113;SDS011;23926;53.222;6.354;2023-09-30T06:58:10;102.40;;;95.00;;
38113;SDS011;23926;53.222;6.354;2023-09-30T07:00:38;102.93;;;95.35;;
38113;SDS011;23926;53.222;6.354;2023-09-30T07:03:05;110.97;;;102.53;;
38113;SDS011;23926;53.222;6.354;2023-09-30T07:05:30;110.57;;;102.30;;
38113;SDS011;23926;53.222;6.354;2023-09-30T07:07:56;108.35;;;100.35;;
38113;SDS011;23926;53.222;6.354;2023-09-30T07:10:22;105.03;;;97.20;;
38113;SDS011;23926;53.222;6.354;2023-09-30T07:12:47;97.80;;;90.57;;
38113;SDS011;23926;53.222;6.354;2023-09-30T07:15:12;97.53;;;90.57;;
38113;SDS011;23926;53.222;6.354;2023-09-30T07:17:41;104.05;;;96.60;;
38113;SDS011;23926;53.222;6.354;2023-09-30T07:20:06;91.75;;;85.30;;
38113;SDS011;23926;53.222;6.354;2023-09-30T07:22:33;86.00;;;80.18;;
38113;SDS011;23926;53.222;6.354;2023-09-30T07:24:59;87.03;;;81.32;;
38113;SDS011;23926;53.222;6.354;2023-09-30T07:27:24;85.70;;;80.45;;
38113;SDS011;23926;53.222;6.354;2023-09-30T07:29:50;85.50;;;80.03;;
38113;SDS011;23926;53.222;6.354;2023-09-30T07:32:15;81.38;;;75.15;;
38113;SDS011;23926;53.222;6.354;2023-09-30T07:34:41;80.93;;;75.57;;
38113;SDS011;23926;53.222;6.354;2023-09-30T07:37:07;94.60;;;88.22;;
38113;SDS011;23926;53.222;6.354;2023-09-30T07:39:33;94.32;;;88.07;;
38113;SDS011;23926;53.222;6.354;2023-09-30T07:42:00;93.57;;;87.25;;
38113;SDS011;23926;53.222;6.354;2023-09-30T07:44:26;89.50;;;83.53;;
38113;SDS011;23926;53.222;6.354;2023-09-30T07:46:51;82.18;;;77.22;;
38113;SDS011;23926;53.222;6.354;2023-09-30T07:49:17;85.97;;;80.82;;
38113;SDS011;23926;53.222;6.354;2023-09-30T07:51:42;81.72;;;76.57;;
38113;SDS011;23926;53.222;6.354;2023-09-30T07:54:08;89.78;;;83.55;;
38113;SDS011;23926;53.222;6.354;2023-09-30T07:56:33;82.78;;;77.75;;
38113;SDS011;23926;53.222;6.354;2023-09-30T07:58:59;75.70;;;70.28;;
38113;SDS011;23926;53.222;6.354;2023-09-30T08:01:24;73.75;;;68.90;;
38113;SDS011;23926;53.222;6.354;2023-09-30T08:03:50;74.97;;;70.38;;
38113;SDS011;23926;53.222;6.354;2023-09-30T08:06:15;78.82;;;73.90;;
38113;SDS011;23926;53.222;6.354;2023-09-30T08:08:41;73.30;;;68.90;;
38113;SDS011;23926;53.222;6.354;2023-09-30T08:11:06;64.10;;;60.38;;
38113;SDS011;23926;53.222;6.354;2023-09-30T08:13:32;73.43;;;69.30;;
38113;SDS011;23926;53.222;6.354;2023-09-30T08:15:59;65.47;;;61.40;;
38113;SDS011;23926;53.222;6.354;2023-09-30T08:18:24;46.45;;;44.20;;
38113;SDS011;23926;53.222;6.354;2023-09-30T08:20:50;41.88;;;39.60;;
38113;SDS011;23926;53.222;6.354;2023-09-30T08:23:15;41.15;;;39.05;;
38113;SDS011;23926;53.222;6.354;2023-09-30T08:25:41;27.23;;;25.40;;
38113;SDS011;23926;53.222;6.354;2023-09-30T08:28:06;12.25;;;11.25;;
38113;SDS011;23926;53.222;6.354;2023-09-30T08:30:34;27.55;;;26.00;;
38113;SDS011;23926;53.222;6.354;2023-09-30T08:33:00;27.48;;;25.58;;
38113;SDS011;23926;53.222;6.354;2023-09-30T08:35:25;48.63;;;45.90;;
38113;SDS011;23926;53.222;6.354;2023-09-30T08:37:50;27.67;;;24.27;;
38113;SDS011;23926;53.222;6.354;2023-09-30T08:40:20;17.48;;;15.95;;
38113;SDS011;23926;53.222;6.354;2023-09-30T08:42:47;29.88;;;27.92;;
38113;SDS011;23926;53.222;6.354;2023-09-30T08:45:17;25.58;;;17.95;;
38113;SDS011;23926;53.222;6.354;2023-09-30T08:47:43;14.52;;;13.55;;
38113;SDS011;23926;53.222;6.354;2023-09-30T08:50:11;23.08;;;20.88;;
38113;SDS011;23926;53.222;6.354;2023-09-30T08:52:41;23.90;;;7.97;;
38113;SDS011;23926;53.222;6.354;2023-09-30T08:55:07;6.07;;;5.53;;
38113;SDS011;23926;53.222;6.354;2023-09-30T08:57:35;14.35;;;13.45;;
38113;SDS011;23926;53.222;6.354;2023-09-30T09:00:04;12.25;;;11.10;;
38113;SDS011;23926;53.222;6.354;2023-09-30T09:02:32;43.25;;;40.60;;
38113;SDS011;23926;53.222;6.354;2023-09-30T09:05:00;13.50;;;12.15;;
38113;SDS011;23926;53.222;6.354;2023-09-30T09:07:26;25.75;;;16.77;;
38113;SDS011;23926;53.222;6.354;2023-09-30T09:10:07;14.27;;;12.65;;
38113;SDS011;23926;53.222;6.354;2023-09-30T09:12:36;17.13;;;6.93;;
38113;SDS011;23926;53.222;6.354;2023-09-30T09:15:04;12.70;;;7.20;;
38113;SDS011;23926;53.222;6.354;2023-09-30T09:17:41;22.08;;;7.90;;
38113;SDS011;23926;53.222;6.354;2023-09-30T09:20:08;14.65;;;5.60;;
38113;SDS011;23926;53.222;6.354;2023-09-30T09:22:42;5.80;;;5.30;;
38113;SDS011;23926;53.222;6.354;2023-09-30T09:25:09;10.48;;;5.93;;
38113;SDS011;23926;53.222;6.354;2023-09-30T09:27:35;5.80;;;3.60;;
38113;SDS011;23926;53.222;6.354;2023-09-30T09:30:43;11.32;;;4.03;;
38113;SDS011;23926;53.222;6.354;2023-09-30T09:32:54;6.90;;;3.60;;
38113;SDS011;23926;53.222;6.354;2023-09-30T09:35:27;5.15;;;2.97;;
38113;SDS011;23926;53.222;6.354;2023-09-30T09:37:56;5.28;;;2.97;;
38113;SDS011;23926;53.222;6.354;2023-09-30T09:40:22;6.25;;;3.42;;
38113;SDS011;23926;53.222;6.354;2023-09-30T09:42:51;5.95;;;3.90;;
38113;SDS011;23926;53.222;6.354;2023-09-30T09:45:20;6.70;;;3.30;;
38113;SDS011;23926;53.222;6.354;2023-09-30T09:47:47;10.55;;;3.80;;
38113;SDS011;23926;53.222;6.354;2023-09-30T09:50:13;6.88;;;3.40;;
38113;SDS011;23926;53.222;6.354;2023-09-30T09:52:40;4.43;;;2.97;;
38113;SDS011;23926;53.222;6.354;2023-09-30T09:55:10;4.72;;;2.30;;
38113;SDS011;23926;53.222;6.354;2023-09-30T09:57:36;6.70;;;2.35;;
38113;SDS011;23926;53.222;6.354;2023-09-30T10:00:03;7.60;;;2.60;;
38113;SDS011;23926;53.222;6.354;2023-09-30T10:02:33;8.07;;;2.85;;
38113;SDS011;23926;53.222;6.354;2023-09-30T10:05:01;6.97;;;2.60;;
38113;SDS011;23926;53.222;6.354;2023-09-30T10:07:29;3.83;;;1.60;;
38113;SDS011;23926;53.222;6.354;2023-09-30T10:09:58;8.60;;;2.72;;
38113;SDS011;23926;53.222;6.354;2023-09-30T10:12:26;6.53;;;3.28;;
38113;SDS011;23926;53.222;6.354;2023-09-30T10:14:52;4.30;;;2.90;;
38113;SDS011;23926;53.222;6.354;2023-09-30T10:17:18;4.53;;;2.08;;
38113;SDS011;23926;53.222;6.354;2023-09-30T10:22:29;4.03;;;1.92;;
38113;SDS011;23926;53.222;6.354;2023-09-30T10:24:55;6.22;;;2.45;;
38113;SDS011;23926;53.222;6.354;2023-09-30T10:29:48;4.43;;;1.85;;
38113;SDS011;23926;53.222;6.354;2023-09-30T10:32:19;6.90;;;2.50;;
38113;SDS011;23926;53.222;6.354;2023-09-30T10:34:48;4.07;;;1.88;;
38113;SDS011;23926;53.222;6.354;2023-09-30T10:37:21;3.22;;;1.75;;
38113;SDS011;23926;53.222;6.354;2023-09-30T10:39:59;4.95;;;2.05;;
38113;SDS011;23926;53.222;6.354;2023-09-30T10:50:58;4.15;;;1.98;;
38113;SDS011;23926;53.222;6.354;2023-09-30T10:53:25;6.20;;;2.08;;
38113;SDS011;23926;53.222;6.354;2023-09-30T10:55:58;4.70;;;1.95;;
38113;SDS011;23926;53.222;6.354;2023-09-30T11:01:10;4.78;;;1.70;;
38113;SDS011;23926;53.222;6.354;2023-09-30T11:03:37;3.15;;;1.52;;
38113;SDS011;23926;53.222;6.354;2023-09-30T11:06:03;4.25;;;2.20;;
38113;SDS011;23926;53.222;6.354;2023-09-30T11:08:29;5.35;;;1.98;;
38113;SDS011;23926;53.222;6.354;2023-09-30T11:10:55;7.03;;;2.15;;
38113;SDS011;23926;53.222;6.354;2023-09-30T11:13:21;3.22;;;1.58;;
38113;SDS011;23926;53.222;6.354;2023-09-30T11:15:48;3.47;;;1.55;;
38113;SDS011;23926;53.222;6.354;2023-09-30T11:18:26;3.88;;;1.45;;
38113;SDS011;23926;53.222;6.354;2023-09-30T11:20:53;2.80;;;1.40;;
38113;SDS011;23926;53.222;6.354;2023-09-30T11:23:35;3.20;;;1.73;;
38113;SDS011;23926;53.222;6.354;2023-09-30T11:26:02;3.05;;;1.25;;
38113;SDS011;23926;53.222;6.354;2023-09-30T11:28:40;5.20;;;1.63;;
38113;SDS011;23926;53.222;6.354;2023-09-30T11:31:10;3.17;;;1.52;;
38113;SDS011;23926;53.222;6.354;2023-09-30T11:33:48;9.23;;;1.90;;
38113;SDS011;23926;53.222;6.354;2023-09-30T11:36:17;3.53;;;1.70;;
38113;SDS011;23926;53.222;6.354;2023-09-30T11:38:44;21.42;;;2.72;;
38113;SDS011;23926;53.222;6.354;2023-09-30T11:41:14;9.18;;;2.30;;
38113;SDS011;23926;53.222;6.354;2023-09-30T11:44:02;2.13;;;1.70;;
38113;SDS011;23926;53.222;6.354;2023-09-30T11:46:30;2.83;;;1.55;;
38113;SDS011;23926;53.222;6.354;2023-09-30T11:49:00;2.88;;;1.50;;
38113;SDS011;23926;53.222;6.354;2023-09-30T11:51:28;5.65;;;2.00;;
38113;SDS011;23926;53.222;6.354;2023-09-30T11:53:54;5.30;;;1.70;;
38113;SDS011;23926;53.222;6.354;2023-09-30T11:56:21;4.13;;;1.92;;
38113;SDS011;23926;53.222;6.354;2023-09-30T11:58:52;2.88;;;1.35;;
38113;SDS011;23926;53.222;6.354;2023-09-30T12:01:18;6.88;;;2.40;;
38113;SDS011;23926;53.222;6.354;2023-09-30T12:03:44;5.25;;;2.10;;
38113;SDS011;23926;53.222;6.354;2023-09-30T12:06:09;5.40;;;1.75;;
38113;SDS011;23926;53.222;6.354;2023-09-30T12:08:39;5.65;;;1.73;;
38113;SDS011;23926;53.222;6.354;2023-09-30T12:11:04;8.85;;;1.58;;
38113;SDS011;23926;53.222;6.354;2023-09-30T12:13:30;9.43;;;1.70;;
38113;SDS011;23926;53.222;6.354;2023-09-30T12:15:56;5.78;;;1.90;;
38113;SDS011;23926;53.222;6.354;2023-09-30T12:18:22;8.50;;;2.45;;
38113;SDS011;23926;53.222;6.354;2023-09-30T12:20:52;8.30;;;1.98;;
38113;SDS011;23926;53.222;6.354;2023-09-30T12:23:18;4.15;;;1.63;;
38113;SDS011;23926;53.222;6.354;2023-09-30T12:25:45;2.88;;;1.75;;
38113;SDS011;23926;53.222;6.354;2023-09-30T12:28:13;2.38;;;1.40;;
38113;SDS011;23926;53.222;6.354;2023-09-30T12:30:40;3.22;;;1.95;;
38113;SDS011;23926;53.222;6.354;2023-09-30T12:33:06;4.30;;;1.38;;
38113;SDS011;23926;53.222;6.354;2023-09-30T12:35:32;5.05;;;1.77;;
38113;SDS011;23926;53.222;6.354;2023-09-30T12:37:58;4.15;;;1.80;;
38113;SDS011;23926;53.222;6.354;2023-09-30T12:40:23;5.47;;;1.90;;
38113;SDS011;23926;53.222;6.354;2023-09-30T12:42:49;2.60;;;1.92;;
38113;SDS011;23926;53.222;6.354;2023-09-30T12:45:14;3.40;;;1.60;;
38113;SDS011;23926;53.222;6.354;2023-09-30T12:47:41;2.65;;;1.42;;
38113;SDS011;23926;53.222;6.354;2023-09-30T12:50:07;4.20;;;2.25;;
38113;SDS011;23926;53.222;6.354;2023-09-30T12:52:36;4.18;;;1.75;;
38113;SDS011;23926;53.222;6.354;2023-09-30T12:55:03;3.40;;;1.40;;
38113;SDS011;23926;53.222;6.354;2023-09-30T12:57:29;7.25;;;2.08;;
38113;SDS011;23926;53.222;6.354;2023-09-30T12:59:55;12.32;;;2.25;;
38113;SDS011;23926;53.222;6.354;2023-09-30T13:02:21;13.52;;;2.17;;
38113;SDS011;23926;53.222;6.354;2023-09-30T13:04:46;3.97;;;1.95;;
38113;SDS011;23926;53.222;6.354;2023-09-30T13:07:12;7.18;;;1.60;;
38113;SDS011;23926;53.222;6.354;2023-09-30T13:09:38;2.67;;;1.75;;
38113;SDS011;23926;53.222;6.354;2023-09-30T13:12:04;4.93;;;2.30;;
38113;SDS011;23926;53.222;6.354;2023-09-30T13:14:30;3.80;;;1.90;;
38113;SDS011;23926;53.222;6.354;2023-09-30T13:16:55;2.53;;;1.63;;
38113;SDS011;23926;53.222;6.354;2023-09-30T13:19:20;3.47;;;1.80;;
38113;SDS011;23926;53.222;6.354;2023-09-30T13:21:47;4.82;;;1.58;;
38113;SDS011;23926;53.222;6.354;2023-09-30T13:24:13;3.78;;;1.98;;
38113;SDS011;23926;53.222;6.354;2023-09-30T13:26:39;7.93;;;1.55;;
38113;SDS011;23926;53.222;6.354;2023-09-30T13:29:04;2.58;;;1.70;;
38113;SDS011;23926;53.222;6.354;2023-09-30T13:31:30;5.75;;;2.40;;
38113;SDS011;23926;53.222;6.354;2023-09-30T13:33:56;5.32;;;1.67;;
38113;SDS011;23926;53.222;6.354;2023-09-30T13:36:21;3.13;;;2.35;;
38113;SDS011;23926;53.222;6.354;2023-09-30T13:38:47;3.40;;;1.77;;
38113;SDS011;23926;53.222;6.354;2023-09-30T13:41:14;3.75;;;1.83;;
38113;SDS011;23926;53.222;6.354;2023-09-30T13:43:40;5.88;;;2.45;;
38113;SDS011;23926;53.222;6.354;2023-09-30T13:46:06;4.90;;;1.75;;
38113;SDS011;23926;53.222;6.354;2023-09-30T13:48:32;5.72;;;1.63;;
38113;SDS011;23926;53.222;6.354;2023-09-30T13:51:05;3.42;;;1.73;;
38113;SDS011;23926;53.222;6.354;2023-09-30T13:53:31;9.70;;;1.47;;
38113;SDS011;23926;53.222;6.354;2023-09-30T13:55:57;9.43;;;1.80;;
38113;SDS011;23926;53.222;6.354;2023-09-30T13:58:22;3.15;;;1.45;;
38113;SDS011;23926;53.222;6.354;2023-09-30T14:00:48;3.22;;;1.70;;
38113;SDS011;23926;53.222;6.354;2023-09-30T14:03:13;3.75;;;2.00;;
38113;SDS011;23926;53.222;6.354;2023-09-30T14:05:38;8.77;;;2.10;;
38113;SDS011;23926;53.222;6.354;2023-09-30T14:08:04;8.55;;;1.98;;
38113;SDS011;23926;53.222;6.354;2023-09-30T14:10:32;6.43;;;1.63;;
38113;SDS011;23926;53.222;6.354;2023-09-30T14:12:58;5.13;;;2.35;;
38113;SDS011;23926;53.222;6.354;2023-09-30T14:15:23;4.00;;;1.98;;
38113;SDS011;23926;53.222;6.354;2023-09-30T14:17:56;3.20;;;1.75;;
38113;SDS011;23926;53.222;6.354;2023-09-30T14:20:23;2.58;;;1.65;;
38113;SDS011;23926;53.222;6.354;2023-09-30T14:22:49;3.67;;;1.50;;
38113;SDS011;23926;53.222;6.354;2023-09-30T14:25:16;2.47;;;1.77;;
38113;SDS011;23926;53.222;6.354;2023-09-30T14:27:42;4.85;;;1.63;;
38113;SDS011;23926;53.222;6.354;2023-09-30T14:30:07;3.05;;;1.42;;
38113;SDS011;23926;53.222;6.354;2023-09-30T14:32:33;4.82;;;1.60;;
38113;SDS011;23926;53.222;6.354;2023-09-30T14:34:59;3.83;;;1.88;;
38113;SDS011;23926;53.222;6.354;2023-09-30T14:37:24;1.90;;;1.33;;
38113;SDS011;23926;53.222;6.354;2023-09-30T14:39:50;2.42;;;1.50;;
38113;SDS011;23926;53.222;6.354;2023-09-30T14:42:15;7.53;;;2.08;;
38113;SDS011;23926;53.222;6.354;2023-09-30T14:44:41;2.75;;;1.42;;